Alfred Needler — CG2683 — position and weather

sailwx.info

Track history (hours):
 
Tides and Currents Weather Stations Pressure Air Temp Water Temp Dewpoint Dewpoint Depression Visibility Wind Speed Wind Dir Waves Ship Positions

Oceanographic research ship Alfred Needler (Canada)

Detailed information on ship capabilities available from University of Delaware's Ocean Information Center.

Last reported at 2017-Nov-16 04:50 UTC. Time now 2017-Nov-18 01:09 UTC.
Position N 47°34' W 052°42'.

Length 50 m; draft 5.2 m.

Type: SAR. MMSI: 316001017.

Date/timePositionNaut miles runAvg speedWind from/ knotsBaromVisibWave heightAir tempDewpointWater temp
2017-Nov-16 04:50N 47°34' W 052°42'0 0.0
2017-Nov-16 00:34N 47°34' W 052°42'0 0.0
2017-Nov-15 23:35N 47°34' W 052°42'0 0.0
2017-Nov-15 23:29N 47°34' W 052°42'0 0.0
2017-Nov-15 21:28N 47°34' W 052°42'0 0.0
2017-Nov-15 20:48N 47°34' W 052°42'  
2017-Nov-08 23:20N 47°42' W 052°30'4 8.3
2017-Nov-08 22:54N 47°38' W 052°32'4 8.4
2017-Nov-08 22:26N 47°34' W 052°33'3 7.5
2017-Nov-08 21:59N 47°31' W 052°35'1 1.2
2017-Nov-08 21:30N 47°32' W 052°35'1 1.1
2017-Nov-08 21:00N 47°32' W 052°35'3 5.1
2017-Nov-08 20:26N 47°33' W 052°39'3 0.2
2017-Nov-08 10:15N 47°34' W 052°42'0 0.0
2017-Nov-08 09:57N 47°34' W 052°42'0 0.0
2017-Nov-08 09:24N 47°34' W 052°42'0 0.0
2017-Nov-08 08:57N 47°34' W 052°42'0 0.0
2017-Nov-08 06:42N 47°34' W 052°42'0 0.0
2017-Nov-08 06:27N 47°34' W 052°42'0 0.0
2017-Nov-08 05:54N 47°34' W 052°42'0 0.0
2017-Nov-08 04:27N 47°34' W 052°42'0 0.0
2017-Nov-08 01:30N 47°34' W 052°42'0 0.0
2017-Nov-08 00:57N 47°34' W 052°42'0 0.0
2017-Nov-08 00:24N 47°34' W 052°42'0 0.0
2017-Nov-07 23:54N 47°34' W 052°42'0 0.0
2017-Nov-07 23:15N 47°34' W 052°42'0 0.0
2017-Nov-07 22:06N 47°34' W 052°42'0 0.0
2017-Nov-07 21:45N 47°34' W 052°42'0 0.0
2017-Nov-07 21:27N 47°34' W 052°42'0 0.0
2017-Nov-07 09:56N 47°34' W 052°42'0 0.0
2017-Nov-07 09:29N 47°34' W 052°42'0 0.0
2017-Nov-07 08:47N 47°34' W 052°42'0 0.0
2017-Nov-07 08:26N 47°34' W 052°42'0 0.0
2017-Nov-07 07:59N 47°34' W 052°42'0 0.0
2017-Nov-07 07:26N 47°34' W 052°42'0 0.0
2017-Nov-07 06:56N 47°34' W 052°42'0 0.0
2017-Nov-07 06:23N 47°34' W 052°42'0 0.0
2017-Nov-07 03:35N 47°34' W 052°42'0 0.0
2017-Nov-07 03:23N 47°34' W 052°42'0 0.0
2017-Nov-07 01:38N 47°34' W 052°42'0 0.0
2017-Nov-07 01:17N 47°34' W 052°42'0 0.0
2017-Nov-07 00:53N 47°34' W 052°42'0 0.0
2017-Nov-07 00:29N 47°34' W 052°42'0 0.0
2017-Nov-06 23:53N 47°34' W 052°42'0 0.0
2017-Nov-06 23:23N 47°34' W 052°42'0 0.0
2017-Nov-06 22:47N 47°34' W 052°42'0 0.0
2017-Nov-06 22:23N 47°34' W 052°42'0 0.0
2017-Nov-06 21:59N 47°34' W 052°42'  
Track history (hours):
 
Tides and Currents Weather Stations Pressure Air Temp Water Temp Dewpoint Dewpoint Depression Visibility Wind Speed Wind Dir Waves Ship Positions

Oceanographic research ship Alfred Needler (Canada)

Detailed information on ship capabilities available from University of Delaware's Ocean Information Center.

Last reported at 2017-Nov-16 04:50 UTC. Time now 2017-Nov-18 01:09 UTC.
Position N 47°34' W 052°42'.

Length 50 m; draft 5.2 m.

Type: SAR. MMSI: 316001017.

Date/timePositionNaut miles runAvg speedWind from/ knotsBaromVisibWave heightAir tempDewpointWater temp
2017-Nov-16 04:50N 47°34' W 052°42'0 0.0
2017-Nov-16 00:34N 47°34' W 052°42'0 0.0
2017-Nov-15 23:35N 47°34' W 052°42'0 0.0
2017-Nov-15 23:29N 47°34' W 052°42'0 0.0
2017-Nov-15 21:28N 47°34' W 052°42'0 0.0
2017-Nov-15 20:48N 47°34' W 052°42'  
2017-Nov-08 23:20N 47°42' W 052°30'4 8.3
2017-Nov-08 22:54N 47°38' W 052°32'4 8.4
2017-Nov-08 22:26N 47°34' W 052°33'3 7.5
2017-Nov-08 21:59N 47°31' W 052°35'1 1.2
2017-Nov-08 21:30N 47°32' W 052°35'1 1.1
2017-Nov-08 21:00N 47°32' W 052°35'3 5.1
2017-Nov-08 20:26N 47°33' W 052°39'3 0.2
2017-Nov-08 10:15N 47°34' W 052°42'0 0.0
2017-Nov-08 09:57N 47°34' W 052°42'0 0.0
2017-Nov-08 09:24N 47°34' W 052°42'0 0.0
2017-Nov-08 08:57N 47°34' W 052°42'0 0.0
2017-Nov-08 06:42N 47°34' W 052°42'0 0.0
2017-Nov-08 06:27N 47°34' W 052°42'0 0.0
2017-Nov-08 05:54N 47°34' W 052°42'0 0.0
2017-Nov-08 04:27N 47°34' W 052°42'0 0.0
2017-Nov-08 01:30N 47°34' W 052°42'0 0.0
2017-Nov-08 00:57N 47°34' W 052°42'0 0.0
2017-Nov-08 00:24N 47°34' W 052°42'0 0.0
2017-Nov-07 23:54N 47°34' W 052°42'0 0.0
2017-Nov-07 23:15N 47°34' W 052°42'0 0.0
2017-Nov-07 22:06N 47°34' W 052°42'0 0.0
2017-Nov-07 21:45N 47°34' W 052°42'0 0.0
2017-Nov-07 21:27N 47°34' W 052°42'0 0.0
2017-Nov-07 09:56N 47°34' W 052°42'0 0.0
2017-Nov-07 09:29N 47°34' W 052°42'0 0.0
2017-Nov-07 08:47N 47°34' W 052°42'0 0.0
2017-Nov-07 08:26N 47°34' W 052°42'0 0.0
2017-Nov-07 07:59N 47°34' W 052°42'0 0.0
2017-Nov-07 07:26N 47°34' W 052°42'0 0.0
2017-Nov-07 06:56N 47°34' W 052°42'0 0.0
2017-Nov-07 06:23N 47°34' W 052°42'0 0.0
2017-Nov-07 03:35N 47°34' W 052°42'0 0.0
2017-Nov-07 03:23N 47°34' W 052°42'0 0.0
2017-Nov-07 01:38N 47°34' W 052°42'0 0.0
2017-Nov-07 01:17N 47°34' W 052°42'0 0.0
2017-Nov-07 00:53N 47°34' W 052°42'0 0.0
2017-Nov-07 00:29N 47°34' W 052°42'0 0.0
2017-Nov-06 23:53N 47°34' W 052°42'0 0.0
2017-Nov-06 23:23N 47°34' W 052°42'0 0.0
2017-Nov-06 22:47N 47°34' W 052°42'0 0.0
2017-Nov-06 22:23N 47°34' W 052°42'0 0.0
2017-Nov-06 21:59N 47°34' W 052°42'  

Dump ship's entire track history